Time;durP1;ratioP1;P1;durP2;ratioP2;P2;SDS_P1;SDS_P2;PMS_P1;PMS_P2;Temp;Humidity;BMP_temperature;BMP_pressure;BME280_temperature;BME280_humidity;BME280_pressure;Samples;Min_cycle;Max_cycle;Signal;HPM_P1;HPM_P2
2023/01/24 00:00:48;;;;;;;40.55;22.58;;;0.90;99.90;;;;;;6227730;23;20024;-91
2023/01/24 00:03:35;;;;;;;44.13;24.75;;;0.90;99.90;;;;;;6255367;23;20028;-91
2023/01/24 00:06:23;;;;;;;41.55;23.35;;;0.90;99.90;;;;;;6237460;23;20035;-90
2023/01/24 00:09:12;;;;;;;42.22;23.58;;;0.90;99.90;;;;;;6233852;23;20028;-90
2023/01/24 00:12:00;;;;;;;46.45;25.20;;;0.90;99.90;;;;;;6266901;23;20023;-89
2023/01/24 00:14:47;;;;;;;48.42;24.77;;;0.80;99.90;;;;;;6249020;23;20055;-87
2023/01/24 00:17:37;;;;;;;46.10;25.00;;;0.80;99.90;;;;;;6272028;22;20007;-88
2023/01/24 00:20:27;;;;;;;46.10;25.05;;;0.80;99.90;;;;;;6247327;23;20072;-90
2023/01/24 00:23:15;;;;;;;44.35;24.27;;;0.80;99.90;;;;;;6237878;23;20041;-90
2023/01/24 00:26:02;;;;;;;43.40;23.70;;;0.80;99.90;;;;;;6227976;23;20113;-89
2023/01/24 00:28:53;;;;;;;46.05;26.08;;;0.80;99.90;;;;;;6264320;23;20027;-90
2023/01/24 00:31:40;;;;;;;46.08;24.55;;;0.80;99.90;;;;;;6270660;23;20023;-89
2023/01/24 00:34:28;;;;;;;45.05;24.35;;;0.80;99.90;;;;;;6237283;23;20032;-92
2023/01/24 00:37:15;;;;;;;47.72;26.42;;;0.80;99.90;;;;;;6254332;23;20548;-90
2023/01/24 00:40:05;;;;;;;47.75;25.40;;;0.80;99.90;;;;;;6233351;23;20024;-91
2023/01/24 00:42:52;;;;;;;48.47;25.88;;;0.80;99.90;;;;;;6253293;23;20020;-91
2023/01/24 00:45:42;;;;;;;47.20;24.98;;;0.80;99.90;;;;;;6224723;23;20020;-90
2023/01/24 00:48:30;;;;;;;44.53;24.65;;;0.80;99.90;;;;;;6247199;23;20024;-89
2023/01/24 00:51:24;;;;;;;43.22;24.45;;;0.80;99.90;;;;;;6227433;23;20073;-91
2023/01/24 00:54:11;;;;;;;49.47;27.13;;;0.80;99.90;;;;;;6247747;23;20034;-91
2023/01/24 00:56:59;;;;;;;51.47;27.60;;;0.80;99.90;;;;;;6211678;23;20024;-91
2023/01/24 00:59:46;;;;;;;48.25;25.55;;;0.80;99.90;;;;;;6229280;23;20431;-88
2023/01/24 01:02:35;;;;;;;49.75;26.40;;;0.80;99.90;;;;;;6247987;23;20070;-91
2023/01/24 01:05:22;;;;;;;50.80;25.67;;;0.80;99.90;;;;;;6245876;23;20035;-91
2023/01/24 01:08:10;;;;;;;48.45;26.65;;;0.80;99.90;;;;;;6224694;23;20024;-90
2023/01/24 01:10:58;;;;;;;49.55;26.42;;;0.80;99.90;;;;;;6247509;23;20076;-91
2023/01/24 01:13:49;;;;;;;46.67;26.02;;;0.80;99.90;;;;;;6227593;23;20027;-91
2023/01/24 01:16:37;;;;;;;48.47;25.90;;;0.80;99.90;;;;;;6248813;23;20031;-90
2023/01/24 01:19:24;;;;;;;52.75;27.13;;;0.80;99.90;;;;;;6246096;23;20331;-88
2023/01/24 01:22:14;;;;;;;42.78;24.80;;;0.80;99.90;;;;;;6223059;23;20035;-91
2023/01/24 01:25:01;;;;;;;49.42;27.10;;;0.80;99.90;;;;;;6246499;23;20039;-89
2023/01/24 01:27:48;;;;;;;48.42;26.15;;;0.80;99.90;;;;;;6227145;23;20024;-91
2023/01/24 01:30:35;;;;;;;50.80;26.42;;;0.80;99.90;;;;;;6246034;23;20091;-91
2023/01/24 01:33:23;;;;;;;45.45;24.98;;;0.80;99.90;;;;;;6244761;23;20031;-92
2023/01/24 01:36:11;;;;;;;48.03;25.15;;;0.80;99.90;;;;;;6225790;23;20107;-92
2023/01/24 01:38:58;;;;;;;45.55;24.75;;;0.80;99.90;;;;;;6245918;23;20052;-91
2023/01/24 01:41:45;;;;;;;47.45;25.77;;;0.80;99.90;;;;;;6247106;23;20028;-91
2023/01/24 01:44:38;;;;;;;48.95;25.90;;;0.80;99.90;;;;;;6225068;23;20117;-90
2023/01/24 01:47:35;;;;;;;46.38;24.90;;;0.80;99.90;;;;;;6225191;23;20028;-91
2023/01/24 01:50:29;;;;;;;46.28;24.35;;;0.80;99.90;;;;;;6248656;23;20021;-91
2023/01/24 01:53:35;;;;;;;46.28;24.25;;;0.80;99.90;;;;;;6227318;23;20027;-89
2023/01/24 01:56:40;;;;;;;46.60;25.08;;;0.80;99.90;;;;;;6229845;23;20551;-90
2023/01/24 01:59:34;;;;;;;47.45;25.33;;;0.80;99.90;;;;;;6247942;23;20024;-91
2023/01/24 02:02:23;;;;;;;47.13;26.13;;;0.80;99.90;;;;;;6226256;23;20049;-90
2023/01/24 02:05:13;;;;;;;45.40;25.42;;;0.80;99.90;;;;;;6227294;23;20024;-90
2023/01/24 02:08:11;;;;;;;48.50;26.33;;;0.80;99.90;;;;;;6248544;23;20138;-91
2023/01/24 02:17:23;;;;;;;54.95;27.67;;;0.80;99.90;;;;;;6248484;23;20043;-90
2023/01/24 02:20:37;;;;;;;52.25;27.45;;;0.80;99.90;;;;;;6227385;23;20135;-90
2023/01/24 02:23:47;;;;;;;53.33;26.90;;;0.70;99.90;;;;;;6247983;23;20051;-92
2023/01/24 02:26:34;;;;;;;53.28;27.10;;;0.70;99.90;;;;;;6226609;23;20024;-92
2023/01/24 02:29:22;;;;;;;50.35;26.40;;;0.70;99.90;;;;;;6226153;23;20047;-90
2023/01/24 02:32:14;;;;;;;54.30;28.00;;;0.70;99.90;;;;;;6250687;23;20024;-92
2023/01/24 02:35:03;;;;;;;53.60;29.27;;;0.70;99.90;;;;;;6248235;23;20039;-89
2023/01/24 02:37:54;;;;;;;60.10;31.10;;;0.70;99.90;;;;;;6246801;23;20028;-89
2023/01/24 02:40:41;;;;;;;52.80;28.10;;;0.70;99.90;;;;;;6227762;23;20035;-92
2023/01/24 02:43:30;;;;;;;56.50;29.17;;;0.70;99.90;;;;;;6248331;23;20024;-90
2023/01/24 02:46:18;;;;;;;55.63;28.17;;;0.70;99.90;;;;;;6226994;23;20039;-90
2023/01/24 02:49:11;;;;;;;57.83;28.20;;;0.70;99.90;;;;;;6227745;23;20051;-92
2023/01/24 02:55:07;;;;;;;53.72;28.42;;;0.70;99.90;;;;;;6248985;23;20035;-91
2023/01/24 02:58:07;;;;;;;57.85;28.23;;;0.70;99.90;;;;;;6226322;23;20020;-89
2023/01/24 03:00:59;;;;;;;58.83;29.88;;;0.70;99.90;;;;;;6229391;23;20024;-91
2023/01/24 03:03:49;;;;;;;60.33;28.35;;;0.70;99.90;;;;;;6229703;23;20016;-91
2023/01/24 03:06:41;;;;;;;53.08;28.33;;;0.70;99.90;;;;;;6227000;23;20028;-91
2023/01/24 03:09:34;;;;;;;60.67;29.48;;;0.70;99.90;;;;;;6226652;23;20024;-92
2023/01/24 03:37:15;;;;;;;61.88;30.77;;;0.70;99.90;;;;;;6260238;23;20367;-89
2023/01/24 03:40:04;;;;;;;70.43;32.05;;;0.70;99.90;;;;;;6228077;23;20402;-88
2023/01/24 03:42:51;;;;;;;64.13;31.33;;;0.70;99.90;;;;;;6226069;23;20032;-91
2023/01/24 03:45:40;;;;;;;63.00;29.80;;;0.70;99.90;;;;;;6226947;23;20024;-90
2023/01/24 03:48:35;;;;;;;66.43;30.83;;;0.70;99.90;;;;;;6229883;23;20046;-88
2023/01/24 03:54:32;;;;;;;61.50;31.00;;;0.70;99.90;;;;;;6247954;23;20039;-91
2023/01/24 03:57:19;;;;;;;63.35;31.52;;;0.70;99.90;;;;;;6227250;23;20416;-89
2023/01/24 04:00:07;;;;;;;58.90;30.48;;;0.70;99.90;;;;;;6230333;23;20028;-91
2023/01/24 04:02:55;;;;;;;64.63;30.80;;;0.70;99.90;;;;;;6251734;23;20497;-90
2023/01/24 04:06:08;;;;;;;58.88;29.13;;;0.70;99.90;;;;;;6253728;23;20035;-92
2023/01/24 04:09:03;;;;;;;57.05;29.30;;;0.70;99.90;;;;;;6251677;23;20079;-90
2023/01/24 04:11:51;;;;;;;58.40;29.15;;;0.70;99.90;;;;;;6260129;23;20031;-90
2023/01/24 04:14:38;;;;;;;66.82;29.05;;;0.70;99.90;;;;;;6243054;23;20055;-91
2023/01/24 04:17:26;;;;;;;58.65;29.33;;;0.70;99.90;;;;;;6240140;23;20052;-91
2023/01/24 04:20:14;;;;;;;59.53;29.65;;;0.70;99.90;;;;;;6239251;23;20059;-91
2023/01/24 04:23:03;;;;;;;60.58;30.30;;;0.70;99.90;;;;;;6261213;23;20052;-90
2023/01/24 04:25:56;;;;;;;58.45;28.60;;;0.70;99.90;;;;;;6247464;22;20022;-88
2023/01/24 04:28:46;;;;;;;63.00;29.67;;;0.70;99.90;;;;;;6247873;22;20042;-89
2023/01/24 04:31:33;;;;;;;59.50;29.05;;;0.70;99.90;;;;;;6245092;22;20149;-87
2023/01/24 04:34:22;;;;;;;57.17;28.38;;;0.70;99.90;;;;;;6281534;22;20016;-92
2023/01/24 04:37:09;;;;;;;57.13;28.33;;;0.70;99.90;;;;;;6302229;22;20038;-91
2023/01/24 04:39:56;;;;;;;58.35;30.02;;;0.70;99.90;;;;;;6279718;22;20020;-91
2023/01/24 04:42:47;;;;;;;55.67;28.40;;;0.70;99.90;;;;;;6303639;22;20020;-92
2023/01/24 04:45:34;;;;;;;66.25;31.23;;;0.70;99.90;;;;;;6302026;22;20011;-86
2023/01/24 04:48:21;;;;;;;62.25;31.45;;;0.60;99.90;;;;;;6302924;22;20466;-86
2023/01/24 04:51:09;;;;;;;59.47;29.55;;;0.70;99.90;;;;;;6303101;22;20086;-87
2023/01/24 04:53:59;;;;;;;59.35;28.77;;;0.70;99.90;;;;;;6284943;22;20032;-84
2023/01/24 04:56:46;;;;;;;60.28;30.63;;;0.70;99.90;;;;;;6303835;22;20037;-87
2023/01/24 04:59:34;;;;;;;62.40;28.95;;;0.70;99.90;;;;;;6302590;22;20035;-85
2023/01/24 05:02:51;;;;;;;65.25;30.77;;;0.70;99.90;;;;;;6303294;22;20008;-86
2023/01/24 05:05:53;;;;;;;64.90;29.05;;;0.70;99.90;;;;;;6257388;22;20031;-90
2023/01/24 05:08:40;;;;;;;66.07;31.05;;;0.70;99.90;;;;;;6292553;22;20381;-89
2023/01/24 05:11:28;;;;;;;62.45;31.38;;;0.70;99.90;;;;;;6293913;22;20024;-90
2023/01/24 05:14:15;;;;;;;63.25;31.42;;;0.70;99.90;;;;;;6285674;22;20019;-92
2023/01/24 05:17:04;;;;;;;63.25;30.05;;;0.70;99.90;;;;;;6277936;22;20051;-88
2023/01/24 05:19:52;;;;;;;61.55;29.58;;;0.70;99.90;;;;;;6277826;22;20055;-89
2023/01/24 05:22:46;;;;;;;64.20;30.40;;;0.70;99.90;;;;;;6279029;22;20058;-90
2023/01/24 05:25:33;;;;;;;69.10;32.05;;;0.70;99.90;;;;;;6279448;22;20058;-89
2023/01/24 05:28:21;;;;;;;72.25;32.33;;;0.70;99.90;;;;;;6279449;22;20028;-91
2023/01/24 05:31:08;;;;;;;66.10;32.47;;;0.70;99.90;;;;;;6278015;22;20052;-92
2023/01/24 05:33:58;;;;;;;68.93;33.65;;;0.70;99.90;;;;;;6279671;22;20015;-91
2023/01/24 05:36:45;;;;;;;66.93;31.15;;;0.70;99.90;;;;;;6287854;22;20111;-92
2023/01/24 05:39:32;;;;;;;76.15;33.45;;;0.70;99.90;;;;;;6281100;22;20085;-90
2023/01/24 05:42:19;;;;;;;66.68;32.53;;;0.70;99.90;;;;;;6279740;22;20518;-92
2023/01/24 05:45:07;;;;;;;78.07;35.33;;;0.70;99.90;;;;;;6279635;22;20038;-92
2023/01/24 05:47:56;;;;;;;79.88;34.58;;;0.60;99.90;;;;;;6282259;22;20086;-90
2023/01/24 05:50:43;;;;;;;75.95;34.72;;;0.60;99.90;;;;;;6288414;22;20086;-92
2023/01/24 05:53:32;;;;;;;81.88;34.80;;;0.60;99.90;;;;;;6288154;22;20024;-90
2023/01/24 05:56:25;;;;;;;81.25;35.15;;;0.60;99.90;;;;;;6289595;22;20035;-89
2023/01/24 05:59:13;;;;;;;82.28;34.53;;;0.60;99.90;;;;;;6295145;22;20020;-91
2023/01/24 06:02:07;;;;;;;75.38;35.13;;;0.60;99.90;;;;;;6298456;22;20023;-92
2023/01/24 06:04:55;;;;;;;79.07;36.55;;;0.60;99.90;;;;;;6292807;22;20024;-91
2023/01/24 06:07:46;;;;;;;90.10;38.35;;;0.60;99.90;;;;;;6290097;22;20027;-87
2023/01/24 06:10:35;;;;;;;85.45;37.38;;;0.60;99.90;;;;;;6290386;22;20419;-90
2023/01/24 06:13:22;;;;;;;91.28;37.60;;;0.70;99.90;;;;;;6283866;22;20030;-91
2023/01/24 06:16:15;;;;;;;79.38;35.95;;;0.70;99.90;;;;;;6284048;22;20030;-90
2023/01/24 06:19:03;;;;;;;83.03;38.08;;;0.70;99.90;;;;;;6285827;22;20027;-91
2023/01/24 06:22:14;;;;;;;85.53;36.75;;;0.60;99.90;;;;;;6284374;22;20055;-86
2023/01/24 06:25:04;;;;;;;87.30;37.67;;;0.60;99.90;;;;;;6278269;22;20031;-89
2023/01/24 06:28:07;;;;;;;88.25;38.30;;;0.60;99.90;;;;;;6278893;22;20046;-88
2023/01/24 06:31:03;;;;;;;90.93;37.97;;;0.60;99.90;;;;;;6279424;22;20098;-91
2023/01/24 06:34:15;;;;;;;93.43;38.42;;;0.60;99.90;;;;;;6284211;22;20031;-89
2023/01/24 06:37:24;;;;;;;90.13;39.38;;;0.60;99.90;;;;;;6284576;22;20031;-89
2023/01/24 06:40:22;;;;;;;89.13;39.33;;;0.60;99.90;;;;;;6280555;22;20059;-89
2023/01/24 06:43:14;;;;;;;96.00;40.00;;;0.60;99.90;;;;;;6279652;22;20031;-90
2023/01/24 06:46:15;;;;;;;89.18;38.55;;;0.60;99.90;;;;;;6277270;22;20486;-88
2023/01/24 06:49:20;;;;;;;89.43;38.50;;;0.60;99.90;;;;;;6279794;22;20125;-89
2023/01/24 06:52:10;;;;;;;88.18;39.00;;;0.60;99.90;;;;;;6279326;22;20496;-88
2023/01/24 06:54:57;;;;;;;92.00;39.20;;;0.70;99.90;;;;;;6280646;22;20296;-91
2023/01/24 06:57:46;;;;;;;95.75;40.90;;;0.70;99.90;;;;;;6278074;22;20027;-90
2023/01/24 07:00:34;;;;;;;96.57;39.50;;;0.70;99.90;;;;;;6278498;22;20031;-90
2023/01/24 07:03:23;;;;;;;83.10;38.17;;;0.70;99.90;;;;;;6278648;22;20028;-88
2023/01/24 07:06:13;;;;;;;83.10;39.33;;;0.70;99.90;;;;;;6278403;22;20036;-88
2023/01/24 07:09:55;;;;;;;87.85;37.78;;;0.70;99.90;;;;;;6277454;22;20024;-88
2023/01/24 07:12:43;;;;;;;86.82;37.30;;;0.70;99.90;;;;;;6278425;22;20173;-92
2023/01/24 07:15:33;;;;;;;92.15;39.78;;;0.70;99.90;;;;;;6278796;22;20042;-90
2023/01/24 07:18:30;;;;;;;89.93;40.00;;;0.70;99.90;;;;;;6277870;22;20085;-83
2023/01/24 07:22:36;;;;;;;85.05;37.60;;;0.70;99.90;;;;;;6278419;22;20111;-86
2023/01/24 07:25:26;;;;;;;84.18;38.38;;;0.70;99.90;;;;;;6255262;22;20410;-86
2023/01/24 07:28:13;;;;;;;92.63;39.40;;;0.70;99.90;;;;;;6276645;22;20023;-85
2023/01/24 07:31:01;;;;;;;85.43;38.35;;;0.70;99.90;;;;;;6277539;22;20034;-84
2023/01/24 07:34:45;;;;;;;83.88;37.03;;;0.70;99.90;;;;;;6279972;22;20027;-86
2023/01/24 07:37:33;;;;;;;78.75;35.47;;;0.70;99.90;;;;;;6277930;22;20046;-85
2023/01/24 07:40:23;;;;;;;75.88;34.95;;;0.70;99.90;;;;;;6277407;22;20129;-86
2023/01/24 07:43:13;;;;;;;75.50;35.47;;;0.70;99.90;;;;;;6277012;22;20039;-85
2023/01/24 07:46:00;;;;;;;78.20;35.80;;;0.70;99.90;;;;;;6275536;22;20028;-85
2023/01/24 07:48:47;;;;;;;72.97;33.75;;;0.80;99.90;;;;;;6276890;22;20027;-87
2023/01/24 07:51:35;;;;;;;72.32;33.72;;;0.80;99.90;;;;;;6278015;22;20308;-87
2023/01/24 07:54:22;;;;;;;71.07;33.22;;;0.80;99.90;;;;;;6281908;22;20081;-89
2023/01/24 07:57:10;;;;;;;69.82;32.65;;;0.80;99.90;;;;;;6257512;22;20027;-88
2023/01/24 08:00:00;;;;;;;68.78;32.25;;;0.80;99.90;;;;;;6258907;22;20055;-88
2023/01/24 08:02:48;;;;;;;69.25;33.35;;;0.80;99.90;;;;;;6260764;22;20031;-89
2023/01/24 08:05:47;;;;;;;69.82;32.60;;;0.80;99.90;;;;;;6289649;22;20030;-88
2023/01/24 08:08:37;;;;;;;63.63;31.25;;;0.90;99.90;;;;;;6278188;22;20027;-87
2023/01/24 08:11:32;;;;;;;67.53;32.70;;;0.90;99.90;;;;;;6255482;22;20096;-88
2023/01/24 08:14:23;;;;;;;57.67;28.65;;;0.90;99.90;;;;;;6255965;22;20157;-87
2023/01/24 08:17:11;;;;;;;63.92;30.50;;;0.90;99.90;;;;;;6276181;22;20117;-87
2023/01/24 08:19:59;;;;;;;56.63;29.60;;;0.90;99.90;;;;;;6276248;22;20027;-89
2023/01/24 08:22:53;;;;;;;61.45;31.20;;;0.90;99.90;;;;;;6258546;22;20031;-90
2023/01/24 08:25:44;;;;;;;56.58;29.13;;;0.90;99.90;;;;;;6256886;22;20117;-88
2023/01/24 08:28:35;;;;;;;68.43;31.38;;;1.00;99.90;;;;;;6258372;22;20419;-87
2023/01/24 08:31:27;;;;;;;63.35;30.52;;;1.00;99.90;;;;;;6279257;22;20019;-89
2023/01/24 08:34:20;;;;;;;60.58;29.63;;;1.00;99.90;;;;;;6271293;22;20035;-89
2023/01/24 08:37:10;;;;;;;63.88;31.20;;;1.00;99.90;;;;;;6266243;22;20080;-89
2023/01/24 08:40:03;;;;;;;60.20;30.23;;;1.00;99.90;;;;;;6264627;22;20548;-89
2023/01/24 08:42:51;;;;;;;58.83;29.98;;;1.00;99.90;;;;;;6264914;22;20055;-91
2023/01/24 08:45:39;;;;;;;63.20;31.50;;;1.00;99.90;;;;;;6262294;22;20058;-91
2023/01/24 08:48:28;;;;;;;63.70;30.58;;;1.10;99.90;;;;;;6263717;22;20034;-91
2023/01/24 08:51:19;;;;;;;59.20;30.02;;;1.10;99.90;;;;;;6262176;22;20089;-91
2023/01/24 08:54:07;;;;;;;59.00;31.02;;;1.10;99.90;;;;;;6273192;22;20375;-91
2023/01/24 08:56:57;;;;;;;60.65;30.73;;;1.10;99.90;;;;;;6278820;22;20024;-87
2023/01/24 09:00:46;;;;;;;60.58;29.33;;;1.20;99.90;;;;;;6276665;22;20028;-90
2023/01/24 09:03:41;;;;;;;56.45;28.25;;;1.20;99.90;;;;;;6253650;22;20038;-89
2023/01/24 09:06:35;;;;;;;56.28;27.95;;;1.20;99.90;;;;;;6280509;22;20058;-86
2023/01/24 09:09:25;;;;;;;58.85;29.60;;;1.20;99.90;;;;;;6282177;22;20037;-87
2023/01/24 09:12:23;;;;;;;;;;;;;;;;;;;;;
2023/01/24 09:15:16;;;;;;;71.78;34.55;;;1.20;99.90;;;;;;6277842;22;20462;-87
2023/01/24 09:18:04;;;;;;;54.08;28.23;;;1.20;99.90;;;;;;6276435;22;20020;-86
2023/01/24 09:20:51;;;;;;;54.42;26.95;;;1.20;99.90;;;;;;6277634;22;20109;-87
2023/01/24 09:30:37;;;;;;;52.00;25.77;;;1.30;99.90;;;;;;6248180;22;20056;-87
2023/01/24 09:33:27;;;;;;;51.08;26.38;;;1.30;99.90;;;;;;6243259;22;20036;-87
2023/01/24 09:36:29;;;;;;;48.80;24.88;;;1.40;99.90;;;;;;6247588;22;20028;-88
2023/01/24 09:39:19;;;;;;;50.83;26.40;;;1.40;99.90;;;;;;6246035;23;20055;-86
2023/01/24 09:42:15;;;;;;;53.20;25.88;;;1.40;99.90;;;;;;6245098;23;20039;-88
2023/01/24 09:45:41;;;;;;;52.97;25.63;;;1.40;99.90;;;;;;6246150;22;20031;-85
2023/01/24 09:48:36;;;;;;;57.47;28.05;;;1.40;99.90;;;;;;6247140;23;20024;-88
2023/01/24 09:51:27;;;;;;;52.47;27.60;;;1.40;99.90;;;;;;6246231;23;20107;-88
2023/01/24 09:54:47;;;;;;;54.35;26.00;;;1.40;99.90;;;;;;6246805;22;20024;-89
2023/01/24 09:57:52;;;;;;;55.40;26.50;;;1.50;99.90;;;;;;6230483;22;20035;-87
2023/01/24 10:00:42;;;;;;;59.83;30.02;;;1.50;99.90;;;;;;6248789;22;20351;-89
2023/01/24 10:03:34;;;;;;;52.38;27.27;;;1.50;99.90;;;;;;6242995;23;20032;-88
2023/01/24 10:06:25;;;;;;;51.58;26.50;;;1.50;99.90;;;;;;6246902;22;20060;-88
2023/01/24 10:09:43;;;;;;;46.25;25.55;;;1.70;99.90;;;;;;6247731;22;20023;-87
2023/01/24 10:12:52;;;;;;;44.08;23.67;;;1.60;99.90;;;;;;6249132;22;20024;-87
2023/01/24 10:15:58;;;;;;;49.88;24.08;;;1.60;99.90;;;;;;6245248;23;20028;-87
2023/01/24 10:19:14;;;;;;;45.42;23.67;;;1.60;99.90;;;;;;6248692;23;20374;-87
2023/01/24 10:22:39;;;;;;;47.30;23.50;;;1.60;99.90;;;;;;6249354;23;20027;-90
2023/01/24 10:25:38;;;;;;;46.35;23.20;;;1.60;99.90;;;;;;6250634;23;20031;-87
2023/01/24 10:28:27;;;;;;;44.08;22.05;;;1.60;99.90;;;;;;6249762;23;20107;-90
2023/01/24 10:31:30;;;;;;;44.78;23.50;;;1.60;99.90;;;;;;6249142;23;20035;-89
2023/01/24 10:34:24;;;;;;;43.47;22.70;;;1.70;99.90;;;;;;6249069;23;20051;-89
2023/01/24 10:37:36;;;;;;;50.25;23.17;;;1.70;99.90;;;;;;6249062;23;20321;-86
2023/01/24 10:40:25;;;;;;;46.28;23.00;;;1.70;99.90;;;;;;6247728;23;20090;-86
2023/01/24 10:43:16;;;;;;;45.97;24.85;;;1.80;99.90;;;;;;6249020;22;20024;-88
2023/01/24 10:46:14;;;;;;;41.20;23.02;;;1.90;99.90;;;;;;6249911;22;20147;-87
2023/01/24 10:49:03;;;;;;;42.45;22.63;;;1.80;35.10;;;;;;6247455;23;20039;-89
2023/01/24 10:52:15;;;;;;;42.30;22.83;;;1.70;23.30;;;;;;6249944;23;20021;-89
2023/01/24 10:55:23;;;;;;;45.85;24.25;;;1.70;12.90;;;;;;6253382;23;20024;-89
2023/01/24 10:58:29;;;;;;;43.55;24.35;;;1.70;1.00;;;;;;6262970;23;20081;-89
2023/01/24 11:02:07;;;;;;;45.72;24.02;;;1.70;1.00;;;;;;6263891;22;20101;-89
2023/01/24 11:05:07;;;;;;;43.72;22.92;;;1.80;1.00;;;;;;6218974;22;20008;-87
2023/01/24 11:08:00;;;;;;;48.75;24.33;;;1.80;1.00;;;;;;6264668;23;20020;-88
2023/01/24 11:11:02;;;;;;;45.83;22.73;;;1.70;1.00;;;;;;6266331;22;20036;-88
2023/01/24 11:13:58;;;;;;;45.20;23.50;;;1.80;1.00;;;;;;6263879;23;20154;-88
2023/01/24 11:16:49;;;;;;;43.08;22.48;;;1.80;1.00;;;;;;6257463;23;20082;-88
2023/01/24 11:19:39;;;;;;;44.75;22.85;;;1.80;1.00;;;;;;6255953;22;20028;-87
2023/01/24 11:22:34;;;;;;;40.75;22.85;;;1.80;99.90;;;;;;6254520;23;20028;-88
2023/01/24 11:25:27;;;;;;;43.20;23.23;;;1.80;99.90;;;;;;6251147;23;20024;-87
2023/01/24 11:28:28;;;;;;;39.13;21.77;;;1.80;99.90;;;;;;6247896;23;20024;-88
2023/01/24 11:31:45;;;;;;;42.67;22.67;;;1.90;99.90;;;;;;6247442;23;20098;-87
2023/01/24 11:34:33;;;;;;;44.95;23.88;;;2.00;99.90;;;;;;6250340;23;20355;-91
2023/01/24 11:38:08;;;;;;;;;;;;;;;;;;;;;
2023/01/24 11:41:10;;;;;;;39.67;21.65;;;2.00;1.00;;;;;;6249273;23;20035;-92
2023/01/24 11:44:20;;;;;;;36.92;21.23;;;2.00;99.90;;;;;;6250644;23;20098;-93
2023/01/24 11:48:06;;;;;;;40.00;20.38;;;2.00;94.70;;;;;;6251307;23;20051;-93
2023/01/24 11:51:33;;;;;;;35.47;20.42;;;2.00;1.40;;;;;;6246603;23;20019;-90
2023/01/24 11:54:43;;;;;;;40.47;21.45;;;2.00;1.00;;;;;;6250724;23;20024;-93
2023/01/24 11:57:57;;;;;;;34.38;19.80;;;2.00;1.00;;;;;;6250298;23;20040;-92
2023/01/24 12:01:10;;;;;;;38.42;19.95;;;2.00;99.90;;;;;;6246549;23;20031;-88
2023/01/24 12:04:20;;;;;;;34.45;18.73;;;2.10;99.90;;;;;;6246986;23;20028;-88
2023/01/24 12:07:44;;;;;;;32.92;18.88;;;2.10;1.00;;;;;;6248107;22;20428;-86
2023/01/24 12:10:42;;;;;;;33.65;18.33;;;2.10;99.90;;;;;;6241158;23;20435;-87
2023/01/24 12:14:12;;;;;;;35.88;20.42;;;2.00;99.90;;;;;;6250516;22;20028;-94
2023/01/24 12:17:22;;;;;;;31.40;17.80;;;2.00;99.90;;;;;;6230394;23;20292;-90
2023/01/24 12:20:56;;;;;;;33.88;18.25;;;2.10;1.00;;;;;;6252304;22;20431;-90
2023/01/24 12:24:11;;;;;;;30.40;17.70;;;2.10;1.00;;;;;;6248716;22;20032;-88
2023/01/24 12:27:13;;;;;;;32.28;18.30;;;2.10;99.90;;;;;;6245116;23;20046;-88
2023/01/24 12:30:25;;;;;;;32.38;17.35;;;2.10;99.90;;;;;;6249870;22;20028;-89
2023/01/24 12:33:24;;;;;;;29.10;17.83;;;2.10;99.90;;;;;;6243785;23;20486;-88
2023/01/24 12:36:23;;;;;;;28.95;17.17;;;2.20;99.90;;;;;;6247791;22;20103;-90
2023/01/24 12:39:17;;;;;;;27.45;16.20;;;2.20;99.90;;;;;;6248235;22;20035;-89
2023/01/24 12:42:19;;;;;;;26.83;16.55;;;2.20;36.70;;;;;;6248562;22;20028;-88
2023/01/24 12:45:22;;;;;;;30.25;16.25;;;2.20;1.00;;;;;;6245403;23;20077;-89
2023/01/24 12:48:28;;;;;;;29.75;16.70;;;2.20;1.00;;;;;;6246936;23;20105;-88
2023/01/24 12:51:30;;;;;;;26.73;16.27;;;2.10;1.00;;;;;;6247792;23;20410;-88
2023/01/24 12:54:29;;;;;;;27.77;16.30;;;2.10;1.00;;;;;;6248448;23;20028;-85
2023/01/24 12:57:31;;;;;;;30.08;17.70;;;2.10;99.90;;;;;;6245502;23;20031;-91
2023/01/24 13:00:22;;;;;;;31.23;17.30;;;2.10;1.00;;;;;;6246074;23;20032;-90
2023/01/24 13:03:18;;;;;;;31.67;17.00;;;2.20;1.00;;;;;;6246910;23;20024;-89
2023/01/24 13:06:44;;;;;;;30.73;16.73;;;2.20;99.90;;;;;;6249683;23;20020;-90
2023/01/24 13:10:00;;;;;;;35.00;18.25;;;2.20;99.90;;;;;;6254102;22;20031;-91
2023/01/24 13:12:51;;;;;;;30.40;16.52;;;2.20;99.90;;;;;;6262401;22;20031;-90
2023/01/24 13:15:58;;;;;;;30.85;16.85;;;2.20;99.90;;;;;;6256525;23;20024;-87
2023/01/24 13:19:05;;;;;;;36.20;19.27;;;2.30;99.90;;;;;;6257361;23;20051;-88
2023/01/24 13:22:34;;;;;;;30.02;18.52;;;2.30;99.90;;;;;;6257828;23;20035;-89
2023/01/24 13:25:25;;;;;;;33.50;18.58;;;2.20;99.90;;;;;;6257286;23;20028;-91
2023/01/24 13:28:36;;;;;;;34.22;18.83;;;2.10;99.90;;;;;;6252837;23;20024;-90
2023/01/24 13:31:50;;;;;;;32.10;18.83;;;2.20;99.90;;;;;;6252868;23;20373;-89
2023/01/24 13:34:47;;;;;;;34.03;19.23;;;2.20;1.00;;;;;;6250814;23;20099;-91
2023/01/24 13:37:37;;;;;;;38.50;20.13;;;2.20;1.00;;;;;;6248804;23;20035;-91
2023/01/24 13:40:34;;;;;;;30.60;18.05;;;2.10;1.00;;;;;;6248315;23;20028;-89
2023/01/24 13:43:46;;;;;;;36.20;19.73;;;2.10;1.00;;;;;;6249462;23;20471;-90
2023/01/24 13:46:45;;;;;;;37.35;19.63;;;2.10;1.00;;;;;;6250318;23;20612;-89
2023/01/24 13:49:58;;;;;;;34.92;20.00;;;2.10;1.00;;;;;;6250307;22;20028;-89
2023/01/24 13:52:58;;;;;;;35.92;19.50;;;2.10;1.00;;;;;;6248437;23;20035;-89
2023/01/24 13:56:03;;;;;;;37.95;19.67;;;2.10;1.00;;;;;;6251215;22;20090;-90
2023/01/24 13:58:52;;;;;;;34.28;19.98;;;2.10;1.00;;;;;;6250373;23;20371;-90
2023/01/24 14:01:46;;;;;;;42.03;20.77;;;2.10;1.00;;;;;;6249721;23;20056;-87
2023/01/24 14:04:42;;;;;;;36.63;21.23;;;2.10;1.00;;;;;;6250316;22;20056;-87
2023/01/24 14:07:45;;;;;;;32.97;19.70;;;2.00;1.00;;;;;;6250415;23;20027;-88
2023/01/24 14:10:45;;;;;;;35.85;19.33;;;2.10;71.20;;;;;;6250530;22;20024;-87
2023/01/24 14:13:47;;;;;;;32.40;19.35;;;2.00;20.00;;;;;;6251749;22;20024;-90
2023/01/24 14:16:38;;;;;;;36.17;20.50;;;2.00;38.50;;;;;;6249766;23;20024;-88
2023/01/24 14:19:38;;;;;;;36.17;19.60;;;2.00;78.20;;;;;;6249172;23;20024;-90
2023/01/24 14:22:38;;;;;;;34.97;19.63;;;2.00;94.30;;;;;;6248744;22;20038;-89
2023/01/24 14:25:40;;;;;;;31.67;18.90;;;2.00;99.90;;;;;;6252714;23;20048;-87
2023/01/24 14:28:45;;;;;;;33.42;19.13;;;2.00;99.90;;;;;;6263197;22;20032;-88
2023/01/24 14:31:37;;;;;;;30.60;18.55;;;2.00;99.90;;;;;;6263538;22;20019;-87
2023/01/24 14:34:37;;;;;;;32.20;19.25;;;2.00;1.00;;;;;;6263823;22;20083;-85
2023/01/24 14:37:31;;;;;;;32.08;19.35;;;1.90;1.00;;;;;;6260680;23;20035;-85
2023/01/24 14:40:22;;;;;;;33.67;19.92;;;1.90;1.00;;;;;;6272336;22;20038;-83
2023/01/24 14:43:11;;;;;;;32.33;19.83;;;1.90;99.90;;;;;;6272945;22;20034;-86
2023/01/24 14:46:09;;;;;;;31.50;19.10;;;1.80;99.90;;;;;;6265785;22;20391;-88
2023/01/24 14:48:57;;;;;;;37.35;20.63;;;1.80;1.00;;;;;;6260476;22;20054;-88
2023/01/24 14:51:46;;;;;;;32.58;20.02;;;1.80;1.00;;;;;;6255323;23;20277;-88
2023/01/24 14:54:34;;;;;;;36.88;20.75;;;1.70;99.90;;;;;;6267828;23;20032;-88
2023/01/24 14:57:32;;;;;;;35.85;20.23;;;1.70;1.00;;;;;;6266790;22;20455;-89
2023/01/24 15:00:24;;;;;;;35.53;22.35;;;1.60;99.90;;;;;;6254909;23;20419;-87
2023/01/24 15:03:25;;;;;;;36.75;20.88;;;1.70;99.90;;;;;;6252849;23;20020;-86
2023/01/24 15:06:24;;;;;;;36.08;21.23;;;1.70;1.00;;;;;;6254307;22;20224;-88
2023/01/24 15:09:26;;;;;;;40.08;22.48;;;1.60;76.90;;;;;;6248793;23;20324;-85
2023/01/24 15:12:39;;;;;;;39.67;22.92;;;1.60;99.90;;;;;;6249989;23;20078;-85
2023/01/24 15:15:28;;;;;;;38.22;21.77;;;1.60;99.90;;;;;;6254438;22;20518;-87
2023/01/24 15:22:18;;;;;;;42.03;22.75;;;1.50;1.00;;;;;;6258313;22;20134;-86
2023/01/24 15:25:26;;;;;;;42.13;22.70;;;1.40;1.00;;;;;;6250478;23;20039;-85
2023/01/24 15:28:29;;;;;;;39.70;22.80;;;1.40;45.60;;;;;;6229829;23;20083;-86
2023/01/24 15:31:31;;;;;;;39.97;23.40;;;1.40;99.90;;;;;;6253308;23;20052;-86
2023/01/24 15:34:22;;;;;;;42.00;24.65;;;1.40;99.90;;;;;;6263208;22;20263;-86
2023/01/24 15:37:12;;;;;;;45.50;23.45;;;1.40;99.90;;;;;;6261020;22;20059;-84
2023/01/24 15:40:05;;;;;;;47.20;24.40;;;1.40;99.90;;;;;;6261756;22;20024;-86
2023/01/24 15:49:28;;;;;;;44.63;24.67;;;1.40;99.90;;;;;;6263145;23;20020;-86
2023/01/24 15:52:21;;;;;;;51.00;27.48;;;1.30;99.90;;;;;;6261545;22;20059;-85
2023/01/24 15:55:11;;;;;;;49.72;26.15;;;1.30;99.90;;;;;;6264355;22;20051;-85
2023/01/24 15:58:01;;;;;;;51.92;29.38;;;1.30;99.90;;;;;;6268080;23;20028;-86
2023/01/24 16:00:54;;;;;;;53.50;25.70;;;1.30;99.90;;;;;;6267038;23;20020;-86
2023/01/24 16:03:44;;;;;;;52.75;25.75;;;1.30;99.90;;;;;;6270613;22;20042;-85